sensor_id;sensor_type;location;lat;lon;timestamp;temperature;humidity
5828;DHT22;42583;50.240;8.444;2022-08-11T00:04:35;20.70;37.10
5828;DHT22;42583;50.240;8.444;2022-08-11T00:19:38;20.60;37.10
5828;DHT22;42583;50.240;8.444;2022-08-11T00:34:43;20.50;37.60
5828;DHT22;42583;50.240;8.444;2022-08-11T00:50:20;20.50;37.20
5828;DHT22;42583;50.240;8.444;2022-08-11T02:06:29;20.30;37.40
5828;DHT22;42583;50.240;8.444;2022-08-11T02:22:05;20.20;37.60
5828;DHT22;42583;50.240;8.444;2022-08-11T03:08:28;20.10;37.90
5828;DHT22;42583;50.240;8.444;2022-08-11T04:40:39;20.00;38.40
5828;DHT22;42583;50.240;8.444;2022-08-11T04:56:04;19.90;38.40
5828;DHT22;42583;50.240;8.444;2022-08-11T05:11:44;19.80;38.60
5828;DHT22;42583;50.240;8.444;2022-08-11T05:26:51;19.60;39.20
5828;DHT22;42583;50.240;8.444;2022-08-11T05:42:12;19.50;39.50
5828;DHT22;42583;50.240;8.444;2022-08-11T05:57:35;19.70;40.00
5828;DHT22;42583;50.240;8.444;2022-08-11T06:12:37;19.90;40.30
5828;DHT22;42583;50.240;8.444;2022-08-11T06:27:40;20.20;40.50
5828;DHT22;42583;50.240;8.444;2022-08-11T06:43:09;20.50;40.80
5828;DHT22;42583;50.240;8.444;2022-08-11T06:58:16;21.00;40.70
5828;DHT22;42583;50.240;8.444;2022-08-11T07:13:38;21.60;40.50
5828;DHT22;42583;50.240;8.444;2022-08-11T07:28:58;22.30;40.00
5828;DHT22;42583;50.240;8.444;2022-08-11T07:44:00;23.00;39.50
5828;DHT22;42583;50.240;8.444;2022-08-11T07:59:09;23.60;39.00
5828;DHT22;42583;50.240;8.444;2022-08-11T08:14:29;24.10;38.20
5828;DHT22;42583;50.240;8.444;2022-08-11T08:29:48;24.70;37.20
5828;DHT22;42583;50.240;8.444;2022-08-11T08:45:09;25.30;36.70
5828;DHT22;42583;50.240;8.444;2022-08-11T09:00:14;25.40;36.10
5828;DHT22;42583;50.240;8.444;2022-08-11T09:15:17;25.80;35.60
5828;DHT22;42583;50.240;8.444;2022-08-11T09:30:19;26.30;35.70
5828;DHT22;42583;50.240;8.444;2022-08-11T09:45:20;26.80;34.20
5828;DHT22;42583;50.240;8.444;2022-08-11T10:00:31;27.70;33.60
5828;DHT22;42583;50.240;8.444;2022-08-11T10:15:32;28.30;32.30
5828;DHT22;42583;50.240;8.444;2022-08-11T10:30:37;29.20;31.70
5828;DHT22;42583;50.240;8.444;2022-08-11T10:45:57;29.10;31.40
5828;DHT22;42583;50.240;8.444;2022-08-11T11:01:29;29.20;30.90
5828;DHT22;42583;50.240;8.444;2022-08-11T11:16:31;29.90;29.60
5828;DHT22;42583;50.240;8.444;2022-08-11T11:47:29;29.90;29.70
5828;DHT22;42583;50.240;8.444;2022-08-11T12:02:31;30.90;29.50
5828;DHT22;42583;50.240;8.444;2022-08-11T12:17:33;31.50;28.40
5828;DHT22;42583;50.240;8.444;2022-08-11T12:32:36;31.80;28.50
5828;DHT22;42583;50.240;8.444;2022-08-11T12:47:37;32.10;27.90
5828;DHT22;42583;50.240;8.444;2022-08-11T13:02:58;32.60;27.80
5828;DHT22;42583;50.240;8.444;2022-08-11T13:18:20;32.90;27.00
5828;DHT22;42583;50.240;8.444;2022-08-11T13:33:22;33.50;26.80
5828;DHT22;42583;50.240;8.444;2022-08-11T13:48:24;34.10;26.30
5828;DHT22;42583;50.240;8.444;2022-08-11T14:03:27;34.90;25.30
5828;DHT22;42583;50.240;8.444;2022-08-11T14:18:30;35.00;24.70
5828;DHT22;42583;50.240;8.444;2022-08-11T14:33:31;36.60;23.70
5828;DHT22;42583;50.240;8.444;2022-08-11T14:48:34;36.50;23.60
5828;DHT22;42583;50.240;8.444;2022-08-11T15:03:37;38.10;23.10
5828;DHT22;42583;50.240;8.444;2022-08-11T15:18:38;37.60;22.80
5828;DHT22;42583;50.240;8.444;2022-08-11T15:33:40;33.50;24.70
5828;DHT22;42583;50.240;8.444;2022-08-11T15:49:17;31.50;26.10
5828;DHT22;42583;50.240;8.444;2022-08-11T16:04:24;30.40;27.20
5828;DHT22;42583;50.240;8.444;2022-08-11T16:19:28;29.60;27.70
5828;DHT22;42583;50.240;8.444;2022-08-11T16:34:37;29.40;28.10
5828;DHT22;42583;50.240;8.444;2022-08-11T16:49:57;29.10;28.40
5828;DHT22;42583;50.240;8.444;2022-08-11T17:05:01;28.60;28.80
5828;DHT22;42583;50.240;8.444;2022-08-11T17:20:21;28.30;29.10
5828;DHT22;42583;50.240;8.444;2022-08-11T17:35:35;28.00;29.30
5828;DHT22;42583;50.240;8.444;2022-08-11T17:50:38;27.80;29.30
5828;DHT22;42583;50.240;8.444;2022-08-11T18:05:43;27.50;29.40
5828;DHT22;42583;50.240;8.444;2022-08-11T18:20:45;27.20;29.60
5828;DHT22;42583;50.240;8.444;2022-08-11T18:36:06;26.80;29.80
5828;DHT22;42583;50.240;8.444;2022-08-11T18:51:29;26.40;30.50
5828;DHT22;42583;50.240;8.444;2022-08-11T19:06:52;25.90;31.10
5828;DHT22;42583;50.240;8.444;2022-08-11T19:22:15;25.50;31.70
5828;DHT22;42583;50.240;8.444;2022-08-11T19:37:37;25.00;32.20
5828;DHT22;42583;50.240;8.444;2022-08-11T19:52:58;24.70;32.60
5828;DHT22;42583;50.240;8.444;2022-08-11T20:08:19;24.30;32.50
5828;DHT22;42583;50.240;8.444;2022-08-11T20:23:44;24.00;32.60
5828;DHT22;42583;50.240;8.444;2022-08-11T20:39:05;23.80;32.90
5828;DHT22;42583;50.240;8.444;2022-08-11T20:54:25;23.50;32.90
5828;DHT22;42583;50.240;8.444;2022-08-11T21:09:45;23.40;33.10
5828;DHT22;42583;50.240;8.444;2022-08-11T21:25:06;23.20;33.30
5828;DHT22;42583;50.240;8.444;2022-08-11T21:40:26;23.10;33.50
5828;DHT22;42583;50.240;8.444;2022-08-11T21:55:47;23.00;33.70
5828;DHT22;42583;50.240;8.444;2022-08-11T22:11:07;22.90;33.70
5828;DHT22;42583;50.240;8.444;2022-08-11T22:26:27;22.70;33.90
5828;DHT22;42583;50.240;8.444;2022-08-11T22:41:47;22.70;33.80
5828;DHT22;42583;50.240;8.444;2022-08-11T22:57:07;22.50;34.20
5828;DHT22;42583;50.240;8.444;2022-08-11T23:12:27;22.30;34.20
5828;DHT22;42583;50.240;8.444;2022-08-11T23:27:46;22.10;34.50
5828;DHT22;42583;50.240;8.444;2022-08-11T23:43:06;22.00;35.00
5828;DHT22;42583;50.240;8.444;2022-08-11T23:58:27;21.80;35.20
